createdAt,value
2018-09-05T00:01:26.248Z,19.37
2018-09-05T00:03:54.843Z,19.39
2018-09-05T00:06:23.599Z,19.39
2018-09-05T00:08:52.165Z,19.33
2018-09-05T00:11:20.766Z,19.28
2018-09-05T00:13:49.601Z,19.23
2018-09-05T00:16:18.276Z,19.21
2018-09-05T00:18:46.952Z,19.18
2018-09-05T00:21:15.751Z,19.16
2018-09-05T00:23:44.314Z,19.12
2018-09-05T00:26:13.005Z,19.07
2018-09-05T00:28:41.649Z,19.08
2018-09-05T00:31:11.434Z,19.07
2018-09-05T00:33:40.551Z,19.06
2018-09-05T00:36:09.511Z,19.04
2018-09-05T00:38:38.122Z,19.00
2018-09-05T00:41:06.866Z,18.98
2018-09-05T00:43:35.535Z,18.93
2018-09-05T00:46:04.134Z,18.87
2018-09-05T00:48:32.698Z,18.85
2018-09-05T00:51:01.383Z,18.84
2018-09-05T00:53:30.035Z,18.80
2018-09-05T00:55:58.597Z,18.78
2018-09-05T00:58:27.245Z,18.76
2018-09-05T01:00:55.894Z,18.78
2018-09-05T01:03:24.551Z,18.77
2018-09-05T01:05:53.297Z,18.79
2018-09-05T01:08:21.934Z,18.81
2018-09-05T01:10:50.513Z,18.79
2018-09-05T01:13:19.478Z,18.70
2018-09-05T01:15:48.168Z,18.70
2018-09-05T01:18:16.770Z,18.55
2018-09-05T01:20:45.474Z,18.62
2018-09-05T01:23:14.047Z,18.62
2018-09-05T01:25:42.680Z,18.63
2018-09-05T01:28:11.396Z,18.57
2018-09-05T01:30:39.987Z,18.57
2018-09-05T01:33:08.623Z,18.32
2018-09-05T01:35:37.224Z,18.41
2018-09-05T01:38:05.856Z,18.31
2018-09-05T01:40:34.577Z,18.16
2018-09-05T01:43:03.447Z,18.23
2018-09-05T01:45:32.096Z,18.25
2018-09-05T01:48:00.738Z,18.28
2018-09-05T01:50:34.707Z,18.30
2018-09-05T01:53:03.320Z,18.25
2018-09-05T01:55:31.976Z,18.24
2018-09-05T01:58:00.686Z,18.26
2018-09-05T02:00:33.423Z,18.26
2018-09-05T02:03:02.794Z,18.29
2018-09-05T02:05:31.474Z,18.25
2018-09-05T02:08:01.372Z,18.23
2018-09-05T02:10:31.051Z,18.18
2018-09-05T02:12:59.931Z,18.16
2018-09-05T02:15:28.595Z,18.08
2018-09-05T02:17:57.199Z,18.05
2018-09-05T02:20:25.800Z,18.02
2018-09-05T02:22:54.419Z,17.99
2018-09-05T02:25:23.169Z,17.99
2018-09-05T02:27:51.880Z,17.97
2018-09-05T02:30:20.528Z,17.95
2018-09-05T02:32:49.356Z,17.95
2018-09-05T02:35:17.941Z,17.97
2018-09-05T02:37:46.608Z,17.99
2018-09-05T02:40:15.403Z,18.00
2018-09-05T02:42:44.068Z,17.97
2018-09-05T02:45:12.651Z,17.99
2018-09-05T02:47:41.262Z,17.98
2018-09-05T02:50:09.936Z,17.99
2018-09-05T02:52:38.688Z,17.98
2018-09-05T02:55:07.701Z,17.99
2018-09-05T02:57:36.746Z,18.01
2018-09-05T03:00:05.657Z,18.00
2018-09-05T03:02:34.360Z,17.98
2018-09-05T03:05:03.588Z,17.97
2018-09-05T03:07:32.569Z,17.92
2018-09-05T03:10:01.636Z,17.88
2018-09-05T03:12:30.210Z,17.87
2018-09-05T03:14:58.815Z,17.85
2018-09-05T03:17:27.703Z,17.87
2018-09-05T03:19:56.299Z,17.88
2018-09-05T03:22:24.891Z,17.86
2018-09-05T03:24:53.527Z,17.82
2018-09-05T03:27:22.125Z,17.81
2018-09-05T03:29:50.755Z,17.80
2018-09-05T03:32:19.901Z,17.76
2018-09-05T03:34:48.492Z,17.75
2018-09-05T03:37:17.156Z,17.73
2018-09-05T03:39:46.104Z,17.72
2018-09-05T03:42:14.751Z,17.69
2018-09-05T03:44:43.495Z,17.64
2018-09-05T03:47:12.181Z,17.67
2018-09-05T03:49:40.817Z,17.67
2018-09-05T03:52:09.515Z,17.65
2018-09-05T03:54:38.193Z,17.62
2018-09-05T03:57:06.854Z,17.61
2018-09-05T03:59:35.427Z,17.59
2018-09-05T04:02:04.150Z,17.56
2018-09-05T04:04:32.719Z,17.51
2018-09-05T04:07:01.339Z,17.49
2018-09-05T04:09:30.025Z,17.46
2018-09-05T04:11:58.629Z,17.44
2018-09-05T04:14:27.169Z,17.43
2018-09-05T04:16:55.941Z,17.34
2018-09-05T04:19:24.693Z,17.27
2018-09-05T04:21:53.258Z,17.30
2018-09-05T04:24:22.969Z,17.33
2018-09-05T04:26:51.603Z,17.32
2018-09-05T04:29:20.220Z,17.30
2018-09-05T04:31:48.872Z,17.33
2018-09-05T04:34:17.479Z,17.32
2018-09-05T04:36:46.068Z,17.32
2018-09-05T04:39:15.095Z,17.33
2018-09-05T04:41:43.745Z,17.32
2018-09-05T04:44:12.318Z,17.23
2018-09-05T04:46:41.159Z,17.20
2018-09-05T04:49:09.708Z,17.21
2018-09-05T04:51:38.280Z,17.20
2018-09-05T04:54:07.468Z,17.24
2018-09-05T04:56:36.076Z,17.25
2018-09-05T04:59:05.135Z,17.23
2018-09-05T05:01:34.051Z,17.06
2018-09-05T05:04:02.652Z,16.97
2018-09-05T05:06:31.208Z,17.02
2018-09-05T05:08:59.879Z,17.02
2018-09-05T05:11:28.469Z,17.05
2018-09-05T05:13:57.099Z,17.04
2018-09-05T05:16:25.753Z,17.07
2018-09-05T05:18:54.311Z,17.08
2018-09-05T05:21:22.867Z,17.06
2018-09-05T05:23:51.470Z,17.03
2018-09-05T05:26:20.020Z,17.08
2018-09-05T05:28:48.619Z,17.03
2018-09-05T05:31:17.291Z,17.01
2018-09-05T05:33:45.852Z,17.05
2018-09-05T05:36:15.299Z,17.02
2018-09-05T05:38:43.887Z,17.09
2018-09-05T05:41:12.467Z,16.98
2018-09-05T05:43:41.028Z,17.18
2018-09-05T05:46:10.136Z,17.09
2018-09-05T05:48:39.115Z,17.20
2018-09-05T05:51:08.052Z,17.32
2018-09-05T05:53:36.756Z,17.53
2018-09-05T05:56:05.332Z,17.73
2018-09-05T05:58:33.887Z,17.90
2018-09-05T06:01:02.845Z,18.10
2018-09-05T06:03:31.351Z,18.26
2018-09-05T06:05:59.992Z,18.42
2018-09-05T06:08:28.547Z,18.56
2018-09-05T06:10:57.087Z,18.64
2018-09-05T06:13:25.640Z,18.79
2018-09-05T06:15:59.131Z,18.94
2018-09-05T06:18:33.772Z,19.09
2018-09-05T06:21:06.662Z,19.21
2018-09-05T06:23:38.710Z,19.35
2018-09-05T06:26:10.628Z,19.59
2018-09-05T06:28:39.352Z,19.74
2018-09-05T06:31:08.024Z,19.88
2018-09-05T06:33:36.571Z,19.99
2018-09-05T06:36:08.740Z,20.12
2018-09-05T06:38:40.230Z,20.29
2018-09-05T06:41:08.780Z,20.51
2018-09-05T06:43:38.728Z,20.77
2018-09-05T06:46:09.119Z,21.05
2018-09-05T06:48:40.295Z,21.22
2018-09-05T06:51:10.440Z,21.34
2018-09-05T06:53:42.477Z,21.60
2018-09-05T06:56:11.970Z,21.85
2018-09-05T06:58:42.291Z,22.16
2018-09-05T07:01:11.748Z,22.38
2018-09-05T07:03:41.743Z,22.55
2018-09-05T07:06:12.987Z,22.68
2018-09-05T07:08:43.688Z,22.86
2018-09-05T07:11:14.648Z,23.16
2018-09-05T07:13:44.899Z,23.38
2018-09-05T07:16:13.564Z,23.47
2018-09-05T07:18:42.364Z,23.52
2018-09-05T07:21:11.053Z,23.62
2018-09-05T07:23:39.579Z,23.76
2018-09-05T07:26:08.283Z,24.02
2018-09-05T07:28:36.844Z,24.37
2018-09-05T07:31:05.436Z,24.73
2018-09-05T07:33:34.197Z,25.04
2018-09-05T07:36:02.796Z,25.16
2018-09-05T07:38:31.493Z,25.22
2018-09-05T07:41:00.339Z,25.41
2018-09-05T07:43:28.910Z,25.70
2018-09-05T07:45:57.455Z,25.75
2018-09-05T07:48:26.104Z,26.10
2018-09-05T07:50:54.725Z,26.29
2018-09-05T07:53:23.276Z,26.66
2018-09-05T07:55:51.888Z,26.81
2018-09-05T07:58:20.463Z,27.03
2018-09-05T08:00:49.023Z,27.09
2018-09-05T08:03:17.616Z,27.17
2018-09-05T08:05:46.168Z,27.45
2018-09-05T08:08:14.716Z,27.42
2018-09-05T08:10:43.383Z,27.60
2018-09-05T08:13:11.963Z,27.39
2018-09-05T08:15:40.520Z,27.80
2018-09-05T08:18:09.254Z,28.03
2018-09-05T08:20:37.791Z,28.31
2018-09-05T08:23:06.695Z,28.35
2018-09-05T08:25:35.655Z,28.73
2018-09-05T08:28:04.352Z,28.66
2018-09-05T08:30:32.923Z,28.82
2018-09-05T08:33:01.512Z,28.71
2018-09-05T08:35:30.336Z,28.65
2018-09-05T08:37:58.921Z,29.02
2018-09-05T08:40:27.436Z,28.83
2018-09-05T08:42:55.975Z,28.46
2018-09-05T08:45:24.872Z,28.31
2018-09-05T08:47:53.337Z,28.72
2018-09-05T08:50:21.835Z,28.81
2018-09-05T08:52:50.494Z,29.00
2018-09-05T08:55:19.185Z,29.37
2018-09-05T08:57:47.760Z,29.84
2018-09-05T09:00:16.311Z,30.05
2018-09-05T09:02:44.975Z,29.58
2018-09-05T09:05:13.536Z,30.02
2018-09-05T09:07:42.168Z,29.86
2018-09-05T09:10:10.959Z,30.10
2018-09-05T09:12:39.596Z,30.06
2018-09-05T09:15:08.180Z,30.00
2018-09-05T09:17:36.834Z,29.90
2018-09-05T09:20:05.423Z,30.10
2018-09-05T09:22:34.083Z,30.65
2018-09-05T09:25:02.663Z,30.68
2018-09-05T09:27:32.319Z,31.08
2018-09-05T09:30:01.467Z,31.06
2018-09-05T09:32:30.152Z,30.43
2018-09-05T09:34:58.749Z,31.07
2018-09-05T09:37:27.315Z,31.11
2018-09-05T09:39:56.354Z,31.62
2018-09-05T09:42:24.923Z,31.51
2018-09-05T09:44:53.487Z,31.74
2018-09-05T09:47:22.076Z,31.96
2018-09-05T09:49:50.648Z,31.95
2018-09-05T09:52:21.407Z,32.47
2018-09-05T09:54:51.517Z,32.13
2018-09-05T09:57:20.142Z,32.33
2018-09-05T09:59:48.743Z,32.33
2018-09-05T10:02:22.616Z,32.55
2018-09-05T10:04:56.580Z,32.78
2018-09-05T10:08:33.119Z,32.88
2018-09-05T10:11:05.879Z,32.92
2018-09-05T10:13:39.915Z,32.93
2018-09-05T10:16:13.584Z,33.43
2018-09-05T10:18:44.735Z,33.95
2018-09-05T10:21:13.324Z,33.86
2018-09-05T10:23:41.900Z,33.90
2018-09-05T10:26:10.464Z,33.46
2018-09-05T10:28:39.156Z,33.25
2018-09-05T10:31:07.724Z,33.20
2018-09-05T10:33:36.295Z,33.92
2018-09-05T10:36:05.247Z,33.53
2018-09-05T10:38:33.793Z,32.77
2018-09-05T10:41:02.432Z,32.81
2018-09-05T10:43:31.108Z,32.43
2018-09-05T10:45:59.731Z,33.00
2018-09-05T10:48:28.425Z,33.16
2018-09-05T10:50:57.103Z,32.86
2018-09-05T10:53:25.648Z,32.79
2018-09-05T10:55:54.247Z,31.94
2018-09-05T10:58:22.821Z,31.75
2018-09-05T11:00:51.376Z,31.53
2018-09-05T11:03:19.933Z,31.87
2018-09-05T11:05:48.616Z,32.12
2018-09-05T11:08:17.167Z,31.66
2018-09-05T11:10:45.784Z,31.33
2018-09-05T11:13:14.323Z,30.90
2018-09-05T11:15:45.744Z,30.46
2018-09-05T11:18:14.323Z,30.64
2018-09-05T11:20:42.912Z,31.33
2018-09-05T11:23:11.479Z,31.66
2018-09-05T11:25:40.147Z,32.92
2018-09-05T11:28:08.700Z,34.28
2018-09-05T11:30:37.318Z,35.68
2018-09-05T11:33:05.952Z,36.59
2018-09-05T11:35:34.497Z,36.98
2018-09-05T11:38:03.062Z,36.83
2018-09-05T11:40:31.711Z,37.20
2018-09-05T11:43:00.417Z,36.44
2018-09-05T11:45:28.971Z,35.01
2018-09-05T11:47:57.572Z,34.19
2018-09-05T11:50:26.139Z,33.29
2018-09-05T11:52:54.700Z,32.58
2018-09-05T11:55:23.479Z,32.00
2018-09-05T11:57:52.040Z,31.84
2018-09-05T12:00:20.619Z,31.74
2018-09-05T12:02:49.581Z,31.34
2018-09-05T12:05:18.147Z,31.47
2018-09-05T12:07:46.697Z,31.37
2018-09-05T12:10:15.371Z,31.14
2018-09-05T12:12:43.930Z,30.75
2018-09-05T12:15:12.507Z,30.59
2018-09-05T12:17:41.599Z,30.59
2018-09-05T12:20:10.164Z,30.54
2018-09-05T12:22:38.719Z,30.35
2018-09-05T12:25:07.519Z,29.84
2018-09-05T12:27:36.097Z,29.93
2018-09-05T12:30:04.699Z,29.98
2018-09-05T12:32:33.283Z,29.86
2018-09-05T12:35:01.844Z,29.67
2018-09-05T12:37:30.400Z,29.36
2018-09-05T12:39:58.991Z,29.49
2018-09-05T12:42:27.540Z,29.66
2018-09-05T12:44:56.088Z,30.07
2018-09-05T12:47:24.663Z,30.29
2018-09-05T12:49:53.203Z,30.44
2018-09-05T12:52:21.758Z,30.49
2018-09-05T12:54:50.751Z,30.42
2018-09-05T12:57:19.362Z,30.37
2018-09-05T12:59:47.907Z,30.38
2018-09-05T13:02:16.588Z,30.37
2018-09-05T13:04:45.183Z,30.35
2018-09-05T13:07:13.935Z,30.45
2018-09-05T13:09:42.891Z,30.33
2018-09-05T13:12:11.495Z,30.15
2018-09-05T13:14:40.047Z,30.25
2018-09-05T13:17:08.723Z,30.38
2018-09-05T13:20:05.036Z,30.36
2018-09-05T13:22:34.103Z,30.33
2018-09-05T13:25:02.732Z,30.23
2018-09-05T13:27:31.340Z,30.25
2018-09-05T13:29:59.931Z,30.25
2018-09-05T13:32:28.484Z,30.14
2018-09-05T13:34:57.048Z,30.21
2018-09-05T13:37:25.647Z,30.31
2018-09-05T13:39:54.208Z,30.32
2018-09-05T13:42:22.779Z,30.43
2018-09-05T13:44:51.739Z,30.19
2018-09-05T13:47:20.357Z,30.23
2018-09-05T13:49:48.905Z,30.14
2018-09-05T13:52:19.350Z,30.11
2018-09-05T13:54:47.923Z,30.08
2018-09-05T13:57:16.495Z,30.17
2018-09-05T13:59:45.736Z,30.15
2018-09-05T14:02:14.287Z,30.18
2018-09-05T14:04:42.860Z,30.17
2018-09-05T14:07:11.457Z,30.24
2018-09-05T14:09:40.017Z,30.15
2018-09-05T14:12:08.593Z,30.02
2018-09-05T14:14:37.415Z,29.82
2018-09-05T14:17:05.976Z,29.74
2018-09-05T14:19:34.543Z,29.65
2018-09-05T14:22:03.750Z,29.62
2018-09-05T14:24:32.388Z,29.67
2018-09-05T14:27:01.096Z,29.71
2018-09-05T14:29:30.288Z,29.73
2018-09-05T14:32:00.329Z,29.66
2018-09-05T14:34:29.915Z,29.70
2018-09-05T14:36:58.863Z,29.68
2018-09-05T14:39:27.421Z,29.64
2018-09-05T14:41:56.106Z,29.45
2018-09-05T14:44:24.667Z,29.49
2018-09-05T14:46:54.457Z,29.53
2018-09-05T14:49:24.100Z,29.55
2018-09-05T14:51:52.659Z,29.34
2018-09-05T14:54:21.224Z,29.31
2018-09-05T14:56:49.832Z,29.37
2018-09-05T14:59:21.595Z,29.31
2018-09-05T15:01:50.487Z,29.31
2018-09-05T15:04:19.811Z,29.26
2018-09-05T15:06:48.443Z,29.30
2018-09-05T15:09:17.121Z,29.26
2018-09-05T15:11:45.671Z,29.22
2018-09-05T15:14:14.675Z,29.29
2018-09-05T15:16:43.783Z,29.04
2018-09-05T15:19:12.376Z,28.98
2018-09-05T15:21:41.189Z,28.85
2018-09-05T15:24:10.959Z,28.89
2018-09-05T15:26:39.725Z,28.93
2018-09-05T15:29:08.272Z,28.98
2018-09-05T15:31:36.880Z,28.97
2018-09-05T15:34:05.565Z,28.98
2018-09-05T15:36:36.054Z,28.97
2018-09-05T15:39:06.451Z,28.89
2018-09-05T15:41:35.102Z,28.88
2018-09-05T15:44:03.739Z,28.77
2018-09-05T15:46:32.304Z,28.86
2018-09-05T15:49:00.876Z,28.85
2018-09-05T15:51:29.484Z,28.71
2018-09-05T15:53:58.181Z,28.61
2018-09-05T15:56:26.863Z,28.62
2018-09-05T15:58:55.875Z,28.56
2018-09-05T16:01:24.431Z,28.45
2018-09-05T16:03:55.288Z,28.36
2018-09-05T16:06:25.004Z,28.43
2018-09-05T16:08:54.013Z,28.44
2018-09-05T16:11:22.724Z,28.44
2018-09-05T16:13:52.062Z,28.43
2018-09-05T16:16:21.016Z,28.43
2018-09-05T16:18:49.808Z,28.42
2018-09-05T16:21:18.975Z,28.40
2018-09-05T16:23:47.837Z,28.35
2018-09-05T16:26:16.703Z,28.37
2018-09-05T16:28:45.764Z,28.35
2018-09-05T16:31:14.631Z,28.34
2018-09-05T16:33:43.713Z,28.34
2018-09-05T16:36:12.934Z,28.34
2018-09-05T16:38:41.791Z,28.31
2018-09-05T16:41:10.755Z,28.31
2018-09-05T16:43:39.347Z,28.35
2018-09-05T16:46:08.504Z,28.33
2018-09-05T16:48:37.152Z,28.33
2018-09-05T16:51:06.655Z,28.38
2018-09-05T16:53:35.373Z,28.38
2018-09-05T16:56:04.683Z,28.40
2018-09-05T16:58:33.791Z,28.37
2018-09-05T17:01:02.934Z,28.36
2018-09-05T17:03:31.871Z,28.35
2018-09-05T17:06:00.449Z,28.34
2018-09-05T17:08:29.187Z,28.26
2018-09-05T17:10:58.295Z,28.24
2018-09-05T17:13:27.219Z,28.19
2018-09-05T17:15:56.093Z,28.15
2018-09-05T17:18:25.070Z,28.10
2018-09-05T17:20:53.675Z,28.09
2018-09-05T17:23:22.378Z,28.03
2018-09-05T17:25:50.908Z,27.99
2018-09-05T17:28:19.793Z,27.86
2018-09-05T17:30:48.391Z,27.80
2018-09-05T17:33:17.012Z,27.76
2018-09-05T17:35:45.923Z,27.69
2018-09-05T17:38:14.572Z,27.66
2018-09-05T17:40:48.964Z,27.59
2018-09-05T17:43:17.531Z,27.54
2018-09-05T17:45:46.376Z,27.45
2018-09-05T17:48:15.115Z,27.37
2018-09-05T17:50:43.676Z,27.30
2018-09-05T17:53:12.224Z,27.17
2018-09-05T17:55:40.848Z,27.11
2018-09-05T17:58:09.400Z,27.07
2018-09-05T18:00:38.061Z,27.04
2018-09-05T18:03:06.667Z,26.97
2018-09-05T18:05:35.215Z,26.92
2018-09-05T18:08:03.768Z,26.93
2018-09-05T18:10:35.879Z,26.88
2018-09-05T18:13:04.635Z,26.84
2018-09-05T18:15:33.187Z,26.82
2018-09-05T18:18:01.780Z,26.77
2018-09-05T18:20:30.328Z,26.71
2018-09-05T18:22:58.883Z,26.66
2018-09-05T18:25:27.535Z,26.51
2018-09-05T18:27:56.096Z,26.56
2018-09-05T18:30:24.635Z,26.49
2018-09-05T18:32:53.554Z,26.49
2018-09-05T18:35:22.119Z,26.47
2018-09-05T18:37:50.663Z,26.46
2018-09-05T18:40:19.363Z,26.43
2018-09-05T18:42:47.903Z,26.38
2018-09-05T18:45:16.455Z,26.35
2018-09-05T18:47:45.322Z,26.33
2018-09-05T18:50:13.875Z,26.26
2018-09-05T18:52:42.433Z,26.21
2018-09-05T18:55:11.229Z,26.17
2018-09-05T18:57:39.795Z,26.10
2018-09-05T19:00:08.401Z,26.03
2018-09-05T19:02:37.315Z,25.97
2018-09-05T19:05:05.938Z,25.82
2018-09-05T19:07:34.483Z,25.64
2018-09-05T19:10:03.063Z,25.51
2018-09-05T19:12:31.654Z,25.47
2018-09-05T19:15:00.219Z,25.44
2018-09-05T19:17:28.874Z,25.45
2018-09-05T19:19:57.441Z,25.30
2018-09-05T19:22:26.018Z,25.28
2018-09-05T19:24:54.655Z,25.18
2018-09-05T19:27:23.281Z,25.13
2018-09-05T19:29:51.824Z,25.05
2018-09-05T19:32:20.408Z,24.94
2018-09-05T19:34:48.979Z,24.94
2018-09-05T19:37:17.600Z,24.85
2018-09-05T19:39:46.307Z,24.78
2018-09-05T19:42:14.865Z,24.74
2018-09-05T19:44:43.435Z,24.69
2018-09-05T19:47:12.096Z,24.64
2018-09-05T19:49:40.636Z,24.68
2018-09-05T19:52:09.740Z,24.58
2018-09-05T19:54:38.403Z,24.61
2018-09-05T19:57:06.984Z,24.54
2018-09-05T19:59:35.537Z,24.47
2018-09-05T20:02:04.167Z,24.45
2018-09-05T20:04:32.898Z,24.35
2018-09-05T20:07:01.446Z,24.41
2018-09-05T20:09:30.020Z,24.39
2018-09-05T20:11:58.576Z,24.33
2018-09-05T20:14:27.249Z,24.36
2018-09-05T20:16:56.093Z,24.23
2018-09-05T20:19:24.619Z,24.19
2018-09-05T20:21:53.685Z,24.12
2018-09-05T20:24:22.439Z,24.10
2018-09-05T20:26:51.012Z,24.06
2018-09-05T20:29:19.571Z,24.00
2018-09-05T20:31:48.599Z,24.03
2018-09-05T20:34:17.158Z,23.98
2018-09-05T20:36:45.789Z,23.95
2018-09-05T20:39:14.557Z,23.89
2018-09-05T20:41:43.105Z,23.84
2018-09-05T20:44:11.767Z,23.85
2018-09-05T20:46:40.695Z,23.80
2018-09-05T20:49:09.255Z,23.84
2018-09-05T20:51:37.820Z,23.89
2018-09-05T20:54:06.784Z,23.79
2018-09-05T20:56:35.360Z,23.80
2018-09-05T20:59:03.935Z,23.69
2018-09-05T21:01:32.846Z,23.72
2018-09-05T21:04:01.404Z,23.68
2018-09-05T21:06:30.024Z,23.62
2018-09-05T21:08:58.687Z,23.65
2018-09-05T21:11:27.248Z,23.59
2018-09-05T21:13:55.799Z,23.55
2018-09-05T21:16:24.451Z,23.52
2018-09-05T21:18:53.011Z,23.44
2018-09-05T21:21:21.575Z,23.42
2018-09-05T21:23:50.183Z,23.34
2018-09-05T21:26:18.738Z,23.30
2018-09-05T21:28:47.299Z,23.26
2018-09-05T21:31:15.887Z,23.23
2018-09-05T21:33:44.439Z,23.16
2018-09-05T21:36:13.076Z,23.14
2018-09-05T21:38:41.943Z,23.14
2018-09-05T21:41:10.511Z,23.13
2018-09-05T21:43:39.074Z,23.13
2018-09-05T21:46:07.704Z,23.09
2018-09-05T21:48:36.303Z,23.08
2018-09-05T21:51:04.917Z,23.04
2018-09-05T21:53:33.588Z,22.95
2018-09-05T21:56:02.532Z,22.89
2018-09-05T21:58:31.080Z,22.89
2018-09-05T22:00:59.703Z,22.86
2018-09-05T22:03:28.261Z,22.72
2018-09-05T22:05:56.814Z,22.70
2018-09-05T22:08:25.631Z,22.57
2018-09-05T22:10:54.255Z,22.49
2018-09-05T22:13:22.967Z,22.36
2018-09-05T22:15:51.620Z,22.28
2018-09-05T22:18:20.287Z,22.21
2018-09-05T22:20:48.839Z,22.21
2018-09-05T22:23:17.445Z,22.30
2018-09-05T22:25:46.027Z,22.37
2018-09-05T22:28:14.594Z,22.37
2018-09-05T22:30:43.287Z,22.33
2018-09-05T22:33:11.945Z,22.33
2018-09-05T22:35:40.508Z,22.29
2018-09-05T22:38:09.099Z,22.25
2018-09-05T22:40:42.874Z,22.22
2018-09-05T22:43:22.583Z,22.16
2018-09-05T22:46:02.351Z,22.12
2018-09-05T22:48:43.225Z,22.06
2018-09-05T22:51:56.600Z,21.90
2018-09-05T22:55:13.455Z,21.89
2018-09-05T23:07:45.505Z,21.81
2018-09-05T23:10:25.287Z,21.73
2018-09-05T23:13:05.356Z,21.74
2018-09-05T23:17:01.796Z,21.72
2018-09-05T23:19:43.236Z,21.65
2018-09-05T23:22:11.947Z,21.63
2018-09-05T23:24:40.508Z,21.71
2018-09-05T23:27:09.104Z,21.74
2018-09-05T23:29:37.668Z,21.77
2018-09-05T23:32:06.344Z,21.78
2018-09-05T23:34:35.008Z,21.77
2018-09-05T23:37:03.577Z,21.77
2018-09-05T23:39:32.145Z,21.74
2018-09-05T23:42:00.869Z,21.73
2018-09-05T23:44:29.453Z,21.74
2018-09-05T23:46:58.266Z,21.68
2018-09-05T23:49:27.005Z,21.62
2018-09-05T23:51:55.596Z,21.50
2018-09-05T23:54:24.185Z,21.40
2018-09-05T23:56:53.113Z,21.43
2018-09-05T23:59:21.677Z,21.41
